Time,TemperatureF,DewpointF,PressureIn,WindDirection,WindDirectionDegrees,WindSpeedMPH,WindSpeedGustMPH,Humidity,HourlyPrecipIn,Conditions,Clouds,dailyrainin,SolarRadiationWatts/m^2,SoftwareType,DateUTC
2013-05-28 00:13:00,63.0,63.0,29.13,SE,135,0.0,0.0,100,0.00,,---,0.95,0.00,VWS V14.01,2013-05-28 04:13:00,
2013-05-28 00:18:00,63.0,63.0,29.13,SE,135,0.0,0.0,100,0.00,,---,0.95,0.00,VWS V14.01,2013-05-28 04:18:00,
2013-05-28 00:23:00,63.0,63.0,29.13,SE,135,0.0,0.0,100,0.00,,---,0.95,0.00,VWS V14.01,2013-05-28 04:23:00,
2013-05-28 00:28:00,63.0,63.0,29.13,West,270,0.0,0.0,100,0.00,,---,0.95,0.00,VWS V14.01,2013-05-28 04:28:00,
2013-05-28 00:33:00,63.0,63.0,29.14,ESE,112,0.0,0.0,100,0.00,,---,0.95,0.00,VWS V14.01,2013-05-28 04:33:00,
2013-05-28 00:38:00,63.0,63.0,29.14,ESE,112,0.0,0.0,100,0.00,,---,0.95,0.00,VWS V14.01,2013-05-28 04:38:00,
2013-05-28 00:44:00,63.0,63.0,29.14,ESE,112,0.0,0.0,100,0.00,,---,0.95,0.00,VWS V14.01,2013-05-28 04:44:00,
2013-05-28 00:49:00,63.0,63.0,29.14,ESE,112,0.0,0.0,100,0.00,,---,0.95,0.00,VWS V14.01,2013-05-28 04:49:00,
2013-05-28 00:54:00,63.0,63.0,29.14,ESE,112,0.0,0.0,100,0.00,,---,0.95,0.00,VWS V14.01,2013-05-28 04:54:00,
2013-05-28 00:59:00,63.0,63.0,29.14,ESE,112,0.0,0.0,100,0.00,,---,0.00,0.00,VWS V14.01,2013-05-28 04:59:00,
2013-05-28 01:04:00,63.0,63.0,29.14,ESE,112,0.0,0.0,100,0.00,,---,0.00,0.00,VWS V14.01,2013-05-28 05:04:00,
2013-05-28 01:09:00,63.0,62.7,29.14,ESE,112,0.0,0.0,99,0.00,,---,0.00,0.00,VWS V14.01,2013-05-28 05:09:00,
2013-05-28 01:14:00,63.0,62.7,29.14,NW,315,0.0,0.0,99,0.00,,---,0.00,0.00,VWS V14.01,2013-05-28 05:14:00,
2013-05-28 01:19:00,63.0,62.7,29.14,WSW,247,0.0,0.0,99,0.00,,---,0.00,0.00,VWS V14.01,2013-05-28 05:19:00,
2013-05-28 01:24:00,63.0,62.7,29.14,South,180,0.0,0.0,99,0.00,,---,0.00,0.00,VWS V14.01,2013-05-28 05:24:00,
2013-05-28 01:29:00,63.0,63.0,29.14,SSE,157,0.0,0.0,100,0.00,,---,0.00,0.00,VWS V14.01,2013-05-28 05:29:00,
2013-05-28 01:34:00,63.0,63.0,29.15,ENE,67,0.0,3.0,100,0.00,,---,0.00,0.00,VWS V14.01,2013-05-28 05:34:00,
2013-05-28 01:39:00,63.0,63.0,29.15,South,180,0.0,2.0,100,0.00,,---,0.00,0.00,VWS V14.01,2013-05-28 05:39:00,
2013-05-28 01:44:00,63.0,63.0,29.15,SE,135,0.0,3.0,100,0.00,,---,0.00,0.00,VWS V14.01,2013-05-28 05:44:00,
2013-05-28 01:49:00,63.0,62.7,29.15,South,180,0.0,1.0,99,0.00,,---,0.00,0.00,VWS V14.01,2013-05-28 05:49:00,
2013-05-28 01:54:00,63.0,62.7,29.14,SSW,202,0.0,3.0,99,0.00,,---,0.00,0.00,VWS V14.01,2013-05-28 05:54:00,
2013-05-28 01:59:00,63.0,62.7,29.14,SSE,157,1.0,3.0,99,0.00,,---,0.00,0.00,VWS V14.01,2013-05-28 05:59:00,
2013-05-28 02:04:00,63.0,62.7,29.15,South,180,1.0,3.0,99,0.00,,---,0.00,0.00,VWS V14.01,2013-05-28 06:04:00,
2013-05-28 02:09:00,63.0,62.4,29.15,South,180,0.0,0.0,98,0.00,,---,0.00,0.00,VWS V14.01,2013-05-28 06:09:00,
2013-05-28 02:14:00,63.0,62.1,29.15,SW,225,0.0,0.0,97,0.00,,---,0.00,0.00,VWS V14.01,2013-05-28 06:14:00,
2013-05-28 02:19:00,63.0,61.8,29.15,SSW,202,1.0,2.0,96,0.00,,---,0.00,0.00,VWS V14.01,2013-05-28 06:19:00,
2013-05-28 02:24:00,63.0,61.8,29.15,SSE,157,0.0,2.0,96,0.00,,---,0.00,0.00,VWS V14.01,2013-05-28 06:24:00,
2013-05-28 02:29:00,63.0,61.8,29.15,SW,225,0.0,0.0,96,0.00,,---,0.00,0.00,VWS V14.01,2013-05-28 06:29:00,
2013-05-28 02:34:00,63.0,61.5,29.15,SSW,202,0.0,0.0,95,0.00,,---,0.00,0.00,VWS V14.01,2013-05-28 06:34:00,
2013-05-28 02:39:00,63.0,61.5,29.15,SSE,157,0.0,0.0,95,0.00,,---,0.00,0.00,VWS V14.01,2013-05-28 06:39:00,
2013-05-28 02:45:00,63.0,61.5,29.15,South,180,0.0,2.0,95,0.00,,---,0.00,0.00,VWS V14.01,2013-05-28 06:45:00,
2013-05-28 02:50:00,63.0,61.2,29.15,SSW,202,0.0,3.0,94,0.00,,---,0.00,0.00,VWS V14.01,2013-05-28 06:50:00,
2013-05-28 02:55:00,63.0,61.0,29.14,SSE,157,0.0,4.0,93,0.00,,---,0.00,0.00,VWS V14.01,2013-05-28 06:55:00,
2013-05-28 03:00:00,63.0,61.0,29.14,SE,135,0.0,1.0,93,0.00,,---,0.00,0.00,VWS V14.01,2013-05-28 07:00:00,
2013-05-28 03:05:00,63.0,60.6,29.13,SE,135,0.0,0.0,92,0.00,,---,0.00,0.00,VWS V14.01,2013-05-28 07:05:00,
2013-05-28 03:10:00,63.0,60.6,29.13,SSE,157,0.0,2.0,92,0.00,,---,0.00,0.00,VWS V14.01,2013-05-28 07:10:00,
2013-05-28 03:15:00,63.0,60.3,29.13,South,180,0.0,0.0,91,0.00,,---,0.00,0.00,VWS V14.01,2013-05-28 07:15:00,
2013-05-28 03:20:00,63.0,60.0,29.13,SSE,157,1.0,4.0,90,0.00,,---,0.00,0.00,VWS V14.01,2013-05-28 07:20:00,
2013-05-28 03:25:00,63.0,60.0,29.12,SSE,157,0.0,2.0,90,0.00,,---,0.00,0.00,VWS V14.01,2013-05-28 07:25:00,
2013-05-28 03:30:00,63.0,60.0,29.12,South,180,0.0,0.0,90,0.00,,---,0.00,0.00,VWS V14.01,2013-05-28 07:30:00,
2013-05-28 03:35:00,63.0,60.0,29.13,South,180,0.0,0.0,90,0.00,,---,0.00,0.00,VWS V14.01,2013-05-28 07:35:00,
2013-05-28 03:40:00,63.0,60.0,29.13,SSE,157,0.0,0.0,90,0.00,,---,0.00,0.00,VWS V14.01,2013-05-28 07:40:00,
2013-05-28 03:45:00,62.0,59.0,29.13,South,180,2.0,3.0,90,0.00,,---,0.00,0.00,VWS V14.01,2013-05-28 07:45:00,
2013-05-28 03:50:00,62.0,59.0,29.13,South,180,0.0,0.0,90,0.00,,---,0.00,0.00,VWS V14.01,2013-05-28 07:50:00,
2013-05-28 03:55:00,62.0,59.0,29.13,SSW,202,0.0,0.0,90,0.00,,---,0.00,0.00,VWS V14.01,2013-05-28 07:55:00,
2013-05-28 04:00:00,62.0,59.0,29.13,South,180,0.0,1.0,90,0.00,,---,0.00,0.00,VWS V14.01,2013-05-28 08:00:00,
2013-05-28 04:05:00,62.0,59.0,29.12,South,180,0.0,2.0,90,0.00,,---,0.00,0.00,VWS V14.01,2013-05-28 08:05:00,
2013-05-28 04:10:00,62.0,59.0,29.12,SE,135,0.0,3.0,90,0.00,,---,0.00,0.00,VWS V14.01,2013-05-28 08:10:00,
2013-05-28 04:15:00,62.0,59.0,29.12,SSE,157,0.0,0.0,90,0.00,,---,0.00,0.00,VWS V14.01,2013-05-28 08:15:00,
2013-05-28 04:20:00,62.0,59.3,29.12,South,180,0.0,0.0,91,0.00,,---,0.00,0.00,VWS V14.01,2013-05-28 08:20:00,
2013-05-28 04:25:00,62.0,59.3,29.12,SSE,157,0.0,0.0,91,0.00,,---,0.00,0.00,VWS V14.01,2013-05-28 08:25:00,
2013-05-28 04:30:00,62.0,59.3,29.12,SSE,157,0.0,2.0,91,0.00,,---,0.00,0.00,VWS V14.01,2013-05-28 08:30:00,
2013-05-28 04:35:00,62.0,59.3,29.12,SSE,157,0.0,0.0,91,0.00,,---,0.00,0.00,VWS V14.01,2013-05-28 08:35:00,
2013-05-28 04:40:00,62.0,59.3,29.12,South,180,0.0,0.0,91,0.00,,---,0.00,0.00,VWS V14.01,2013-05-28 08:40:00,
2013-05-28 04:45:00,62.0,59.3,29.12,SSW,202,0.0,3.0,91,0.00,,---,0.00,0.00,VWS V14.01,2013-05-28 08:45:00,
2013-05-28 04:50:00,62.0,59.3,29.12,SSE,157,0.0,0.0,91,0.00,,---,0.00,0.00,VWS V14.01,2013-05-28 08:50:00,
2013-05-28 04:55:00,62.0,59.3,29.13,SE,135,0.0,0.0,91,0.00,,---,0.00,0.00,VWS V14.01,2013-05-28 08:55:00,
2013-05-28 05:00:00,62.0,59.3,29.13,SE,135,0.0,0.0,91,0.00,,---,0.00,0.00,VWS V14.01,2013-05-28 09:00:00,
2013-05-28 05:05:00,62.0,59.3,29.12,SE,135,0.0,2.0,91,0.00,,---,0.00,0.00,VWS V14.01,2013-05-28 09:05:00,
2013-05-28 05:10:00,62.0,59.7,29.12,SE,135,2.0,3.0,92,0.00,,---,0.00,0.00,VWS V14.01,2013-05-28 09:10:00,
2013-05-28 05:15:00,62.0,59.7,29.13,SSE,157,0.0,0.0,92,0.00,,---,0.00,0.00,VWS V14.01,2013-05-28 09:15:00,
2013-05-28 05:20:00,62.0,59.7,29.13,SW,225,0.0,0.0,92,0.00,,---,0.00,0.00,VWS V14.01,2013-05-28 09:20:00,
2013-05-28 05:25:00,62.0,59.7,29.12,South,180,0.0,0.0,92,0.00,,---,0.00,0.00,VWS V14.01,2013-05-28 09:25:00,
2013-05-28 05:30:00,61.0,58.4,29.12,SE,135,0.0,1.0,91,0.00,,---,0.00,0.00,VWS V14.01,2013-05-28 09:30:00,
2013-05-28 05:35:00,61.0,58.7,29.13,SW,225,0.0,0.0,92,0.00,,---,0.00,0.00,VWS V14.01,2013-05-28 09:35:00,
2013-05-28 05:40:00,62.0,59.7,29.13,South,180,0.0,4.0,92,0.00,,---,0.00,0.00,VWS V14.01,2013-05-28 09:40:00,
2013-05-28 05:45:00,61.0,58.7,29.12,SSE,157,0.0,2.0,92,0.00,,---,0.00,0.00,VWS V14.01,2013-05-28 09:45:00,
2013-05-28 05:50:00,61.0,58.7,29.12,South,180,0.0,0.0,92,0.00,,---,0.00,0.00,VWS V14.01,2013-05-28 09:50:00,
2013-05-28 05:55:00,61.0,58.7,29.13,South,180,0.0,0.0,92,0.00,,---,0.00,0.00,VWS V14.01,2013-05-28 09:55:00,
2013-05-28 06:00:00,61.0,58.7,29.13,SSE,157,0.0,0.0,92,0.00,,---,0.00,0.00,VWS V14.01,2013-05-28 10:00:00,
2013-05-28 06:05:00,61.0,58.7,29.13,SSE,157,0.0,0.0,92,0.00,,---,0.00,0.00,VWS V14.01,2013-05-28 10:05:00,
2013-05-28 06:10:00,61.0,58.4,29.13,SSE,157,3.0,5.0,91,0.00,,---,0.01,0.00,VWS V14.01,2013-05-28 10:10:00,
2013-05-28 06:15:00,61.0,58.7,29.13,SSE,157,0.0,2.0,92,0.01,,---,0.01,0.00,VWS V14.01,2013-05-28 10:15:00,
2013-05-28 06:20:00,62.0,59.7,29.13,South,180,0.0,0.0,92,0.01,,---,0.01,0.00,VWS V14.01,2013-05-28 10:20:00,
2013-05-28 06:25:00,61.0,58.7,29.12,South,180,0.0,0.0,92,0.01,,---,0.01,0.00,VWS V14.01,2013-05-28 10:25:00,
2013-05-28 06:30:00,62.0,59.7,29.12,SE,135,1.0,2.0,92,0.01,,---,0.01,0.00,VWS V14.01,2013-05-28 10:30:00,
2013-05-28 06:35:00,62.0,59.7,29.13,South,180,0.0,0.0,92,0.01,,---,0.01,0.00,VWS V14.01,2013-05-28 10:35:00,
2013-05-28 06:40:00,61.0,58.7,29.13,SSE,157,0.0,0.0,92,0.01,,---,0.01,0.00,VWS V14.01,2013-05-28 10:40:00,
2013-05-28 06:45:00,62.0,59.7,29.13,SSE,157,2.0,3.0,92,0.01,,---,0.01,0.00,VWS V14.01,2013-05-28 10:45:00,
2013-05-28 06:50:00,62.0,59.7,29.13,SSE,157,1.0,4.0,92,0.01,,---,0.01,0.00,VWS V14.01,2013-05-28 10:50:00,
2013-05-28 06:56:00,62.0,60.0,29.13,South,180,0.0,2.0,93,0.01,,---,0.01,0.00,VWS V14.01,2013-05-28 10:56:00,
2013-05-28 07:01:00,62.0,60.3,29.13,SSE,157,2.0,4.0,94,0.01,,---,0.01,0.00,VWS V14.01,2013-05-28 11:01:00,
2013-05-28 07:06:00,62.0,59.7,29.14,SSW,202,0.0,0.0,92,0.01,,---,0.01,0.00,VWS V14.01,2013-05-28 11:06:00,
2013-05-28 07:12:00,62.0,59.7,29.15,SSE,157,0.0,0.0,92,0.00,,---,0.01,0.00,VWS V14.01,2013-05-28 11:12:00,
2013-05-28 07:17:00,62.0,59.7,29.15,SSE,157,0.0,0.0,92,0.00,,---,0.01,0.00,VWS V14.01,2013-05-28 11:17:00,
2013-05-28 07:22:00,62.0,59.7,29.15,SSW,202,2.0,3.0,92,0.00,,---,0.01,0.00,VWS V14.01,2013-05-28 11:22:00,
2013-05-28 07:27:00,62.0,59.7,29.15,SSW,202,0.0,0.0,92,0.00,,---,0.01,0.00,VWS V14.01,2013-05-28 11:27:00,
2013-05-28 07:32:00,63.0,62.1,29.15,South,180,2.0,4.0,97,0.00,,---,0.01,0.00,VWS V14.01,2013-05-28 11:32:00,
2013-05-28 07:37:00,63.0,61.2,29.15,SSE,157,3.0,3.0,94,0.00,,---,0.01,0.00,VWS V14.01,2013-05-28 11:37:00,
2013-05-28 07:42:00,63.0,61.5,29.14,SSW,202,0.0,3.0,95,0.00,,---,0.01,0.00,VWS V14.01,2013-05-28 11:42:00,
2013-05-28 07:47:00,63.0,61.8,29.14,SSE,157,0.0,3.0,96,0.00,,---,0.01,0.00,VWS V14.01,2013-05-28 11:47:00,
2013-05-28 07:52:00,64.0,64.0,29.14,South,180,3.0,4.0,100,0.00,,---,0.01,0.00,VWS V14.01,2013-05-28 11:52:00,
2013-05-28 07:57:00,64.0,62.8,29.14,SSW,202,0.0,3.0,96,0.00,,---,0.01,0.00,VWS V14.01,2013-05-28 11:57:00,
2013-05-28 08:02:00,65.0,64.1,29.14,South,180,2.0,3.0,97,0.00,,---,0.01,0.00,VWS V14.01,2013-05-28 12:02:00,
2013-05-28 08:07:00,65.0,65.0,29.14,South,180,3.0,4.0,100,0.00,,---,0.01,0.00,VWS V14.01,2013-05-28 12:07:00,
2013-05-28 08:12:00,65.0,65.0,29.14,South,180,1.0,4.0,100,0.00,,---,0.01,0.00,VWS V14.01,2013-05-28 12:12:00,
2013-05-28 08:18:00,65.0,65.0,29.14,SW,225,1.0,4.0,100,0.00,,---,0.01,0.00,VWS V14.01,2013-05-28 12:18:00,
2013-05-28 08:23:00,66.0,66.0,29.14,SSE,157,3.0,3.0,100,0.00,,---,0.01,0.00,VWS V14.01,2013-05-28 12:23:00,
2013-05-28 08:28:00,66.0,66.0,29.14,SSW,202,2.0,4.0,100,0.00,,---,0.01,0.00,VWS V14.01,2013-05-28 12:28:00,
2013-05-28 08:33:00,66.0,66.0,29.13,South,180,2.0,5.0,100,0.00,,---,0.01,0.00,VWS V14.01,2013-05-28 12:33:00,
2013-05-28 08:38:00,67.0,67.0,29.13,SSW,202,2.0,6.0,100,0.00,,---,0.01,0.00,VWS V14.01,2013-05-28 12:38:00,
2013-05-28 08:43:00,67.0,67.0,29.14,SSW,202,5.0,5.0,100,0.00,,---,0.01,0.00,VWS V14.01,2013-05-28 12:43:00,
2013-05-28 08:48:00,67.0,67.0,29.14,SSW,202,4.0,5.0,100,0.00,,---,0.01,0.00,VWS V14.01,2013-05-28 12:48:00,
2013-05-28 08:53:00,67.0,67.0,29.13,South,180,2.0,6.0,100,0.00,,---,0.01,0.00,VWS V14.01,2013-05-28 12:53:00,
2013-05-28 08:58:00,68.0,68.0,29.13,South,180,3.0,5.0,100,0.00,,---,0.01,0.00,VWS V14.01,2013-05-28 12:58:00,
2013-05-28 09:03:00,68.0,68.0,29.12,South,180,3.0,3.0,100,0.00,,---,0.01,0.00,VWS V14.01,2013-05-28 13:03:00,
2013-05-28 09:08:00,68.0,68.0,29.12,SW,225,8.0,8.0,100,0.00,,---,0.01,0.00,VWS V14.01,2013-05-28 13:08:00,
2013-05-28 09:13:00,68.0,68.0,29.11,SSE,157,5.0,8.0,100,0.00,,---,0.01,0.00,VWS V14.01,2013-05-28 13:13:00,
2013-05-28 09:18:00,68.0,68.0,29.11,SSW,202,3.0,7.0,100,0.00,,---,0.01,0.00,VWS V14.01,2013-05-28 13:18:00,
2013-05-28 09:23:00,68.0,68.0,29.10,WSW,247,3.0,5.0,100,0.00,,---,0.01,0.00,VWS V14.01,2013-05-28 13:23:00,
2013-05-28 09:28:00,68.0,68.0,29.10,SE,135,6.0,9.0,100,0.00,,---,0.01,0.00,VWS V14.01,2013-05-28 13:28:00,
2013-05-28 09:33:00,69.0,69.0,29.09,SSE,157,4.0,7.0,100,0.00,,---,0.01,0.00,VWS V14.01,2013-05-28 13:33:00,
2013-05-28 09:38:00,69.0,69.0,29.09,SE,135,3.0,5.0,100,0.00,,---,0.01,0.00,VWS V14.01,2013-05-28 13:38:00,
2013-05-28 09:43:00,69.0,69.0,29.11,East,90,3.0,4.0,100,0.00,,---,0.01,0.00,VWS V14.01,2013-05-28 13:43:00,
2013-05-28 09:48:00,69.0,69.0,29.11,SW,225,3.0,7.0,100,0.00,,---,0.01,0.00,VWS V14.01,2013-05-28 13:48:00,
2013-05-28 09:53:00,69.0,69.0,29.10,South,180,4.0,8.0,100,0.00,,---,0.01,0.00,VWS V14.01,2013-05-28 13:53:00,
2013-05-28 09:58:00,69.0,69.0,29.10,SSW,202,3.0,8.0,100,0.00,,---,0.01,0.00,VWS V14.01,2013-05-28 13:58:00,
2013-05-28 10:03:00,69.0,69.0,29.10,SSW,202,3.0,5.0,100,0.00,,---,0.01,0.00,VWS V14.01,2013-05-28 14:03:00,
2013-05-28 10:08:00,70.0,70.0,29.10,South,180,3.0,7.0,100,0.00,,---,0.01,0.00,VWS V14.01,2013-05-28 14:08:00,
2013-05-28 10:13:00,70.0,70.0,29.10,SSE,157,3.0,5.0,100,0.00,,---,0.01,0.00,VWS V14.01,2013-05-28 14:13:00,
2013-05-28 10:18:00,70.0,69.7,29.10,WSW,247,4.0,8.0,99,0.00,,---,0.01,0.00,VWS V14.01,2013-05-28 14:18:00,
2013-05-28 10:23:00,71.0,70.7,29.10,SSW,202,0.0,7.0,99,0.00,,---,0.01,0.00,VWS V14.01,2013-05-28 14:23:00,
2013-05-28 10:28:00,71.0,70.7,29.10,SSW,202,4.0,7.0,99,0.00,,---,0.01,0.00,VWS V14.01,2013-05-28 14:28:00,
2013-05-28 10:33:00,71.0,70.4,29.10,SW,225,2.0,7.0,98,0.00,,---,0.01,0.00,VWS V14.01,2013-05-28 14:33:00,
2013-05-28 10:38:00,71.0,70.4,29.10,SW,225,5.0,5.0,98,0.00,,---,0.01,0.00,VWS V14.01,2013-05-28 14:38:00,
2013-05-28 10:43:00,72.0,70.8,29.09,South,180,5.0,6.0,96,0.00,,---,0.01,0.00,VWS V14.01,2013-05-28 14:43:00,
2013-05-28 10:48:00,72.0,70.8,29.09,ESE,112,4.0,7.0,96,0.00,,---,0.01,0.00,VWS V14.01,2013-05-28 14:48:00,
2013-05-28 10:53:00,72.0,70.8,29.09,SSE,157,4.0,6.0,96,0.00,,---,0.01,0.00,VWS V14.01,2013-05-28 14:53:00,
2013-05-28 10:58:00,72.0,70.8,29.09,South,180,0.0,8.0,96,0.00,,---,0.01,0.00,VWS V14.01,2013-05-28 14:58:00,
2013-05-28 11:03:00,72.0,70.2,29.08,SE,135,7.0,10.0,94,0.00,,---,0.01,0.00,VWS V14.01,2013-05-28 15:03:00,
2013-05-28 11:08:00,72.0,69.9,29.08,SSW,202,5.0,7.0,93,0.00,,---,0.01,0.00,VWS V14.01,2013-05-28 15:08:00,
2013-05-28 11:13:00,73.0,70.5,29.01,SW,225,4.0,7.0,92,0.00,,---,0.01,0.00,VWS V14.01,2013-05-28 15:13:00,
2013-05-28 11:18:00,73.0,70.5,29.01,South,180,0.0,4.0,92,0.00,,---,0.01,0.00,VWS V14.01,2013-05-28 15:18:00,
2013-05-28 11:23:00,73.0,70.2,29.05,SSW,202,1.0,4.0,91,0.00,,---,0.01,0.00,VWS V14.01,2013-05-28 15:23:00,
2013-05-28 11:28:00,73.0,70.5,29.05,South,180,0.0,4.0,92,0.00,,---,0.01,0.00,VWS V14.01,2013-05-28 15:28:00,
2013-05-28 11:33:00,73.0,70.5,29.06,South,180,0.0,4.0,92,0.00,,---,0.01,0.00,VWS V14.01,2013-05-28 15:33:00,
2013-05-28 11:38:00,74.0,71.2,29.06,South,180,4.0,6.0,91,0.00,,---,0.01,0.00,VWS V14.01,2013-05-28 15:38:00,
2013-05-28 11:43:00,74.0,71.2,29.05,SSE,157,3.0,7.0,91,0.00,,---,0.01,0.00,VWS V14.01,2013-05-28 15:43:00,
2013-05-28 11:48:00,74.0,70.9,29.05,South,180,4.0,10.0,90,0.00,,---,0.01,0.00,VWS V14.01,2013-05-28 15:48:00,
2013-05-28 11:53:00,75.0,71.9,29.04,South,180,4.0,6.0,90,0.00,,---,0.01,0.00,VWS V14.01,2013-05-28 15:53:00,
2013-05-28 11:58:00,74.0,70.9,29.04,South,180,3.0,9.0,90,0.00,,---,0.01,0.00,VWS V14.01,2013-05-28 15:58:00,
2013-05-28 12:03:00,74.0,70.6,29.09,SSE,157,5.0,5.0,89,0.00,,---,0.01,0.00,VWS V14.01,2013-05-28 16:03:00,
2013-05-28 12:08:00,74.0,70.9,29.09,SSW,202,8.0,9.0,90,0.00,,---,0.01,0.00,VWS V14.01,2013-05-28 16:08:00,
2013-05-28 12:13:00,74.0,70.6,29.09,SW,225,0.0,9.0,89,0.00,,---,0.01,0.00,VWS V14.01,2013-05-28 16:13:00,
2013-05-28 12:18:00,74.0,71.2,29.09,SSW,202,9.0,9.0,91,0.00,,---,0.01,0.00,VWS V14.01,2013-05-28 16:18:00,
2013-05-28 12:23:00,74.0,70.6,29.09,WSW,247,3.0,6.0,89,0.00,,---,0.01,0.00,VWS V14.01,2013-05-28 16:23:00,
2013-05-28 12:28:00,74.0,70.6,29.09,SSW,202,5.0,10.0,89,0.00,,---,0.01,0.00,VWS V14.01,2013-05-28 16:28:00,
2013-05-28 12:33:00,75.0,70.9,29.04,SSE,157,8.0,11.0,87,0.00,,---,0.01,0.00,VWS V14.01,2013-05-28 16:33:00,
2013-05-28 12:38:00,75.0,70.9,29.04,SSE,157,3.0,6.0,87,0.00,,---,0.01,0.00,VWS V14.01,2013-05-28 16:38:00,
2013-05-28 12:43:00,75.0,70.5,29.03,SE,135,4.0,10.0,86,0.00,,---,0.01,0.00,VWS V14.01,2013-05-28 16:43:00,
2013-05-28 12:48:00,75.0,71.5,29.03,South,180,6.0,6.0,89,0.00,,---,0.01,0.00,VWS V14.01,2013-05-28 16:48:00,
2013-05-28 12:53:00,75.0,70.2,29.06,SSW,202,8.0,8.0,85,0.00,,---,0.01,0.00,VWS V14.01,2013-05-28 16:53:00,
2013-05-28 12:58:00,76.0,71.9,29.06,South,180,1.0,5.0,87,0.00,,---,0.01,0.00,VWS V14.01,2013-05-28 16:58:00,
2013-05-28 13:03:00,76.0,71.9,29.01,SW,225,0.0,5.0,87,0.00,,---,0.01,0.00,VWS V14.01,2013-05-28 17:03:00,
2013-05-28 13:08:00,76.0,70.8,29.01,South,180,11.0,11.0,84,0.00,,---,0.01,0.00,VWS V14.01,2013-05-28 17:08:00,
2013-05-28 13:13:00,76.0,70.5,29.06,SW,225,7.0,7.0,83,0.00,,---,0.01,0.00,VWS V14.01,2013-05-28 17:13:00,
2013-05-28 13:18:00,76.0,70.5,29.06,SSE,157,3.0,4.0,83,0.00,,---,0.01,0.00,VWS V14.01,2013-05-28 17:18:00,
2013-05-28 13:23:00,76.0,70.5,29.04,SW,225,2.0,13.0,83,0.00,,---,0.01,0.00,VWS V14.01,2013-05-28 17:23:00,
2013-05-28 13:28:00,76.0,69.8,29.04,SSW,202,4.0,10.0,81,0.00,,---,0.01,0.00,VWS V14.01,2013-05-28 17:28:00,
2013-05-28 13:33:00,77.0,70.7,28.99,SSE,157,3.0,13.0,81,0.00,,---,0.01,0.00,VWS V14.01,2013-05-28 17:33:00,
2013-05-28 13:38:00,77.0,70.7,28.99,South,180,6.0,9.0,81,0.00,,---,0.01,0.00,VWS V14.01,2013-05-28 17:38:00,
2013-05-28 13:43:00,77.0,70.4,29.02,SSW,202,10.0,10.0,80,0.00,,---,0.01,0.00,VWS V14.01,2013-05-28 17:43:00,
2013-05-28 13:48:00,77.0,70.4,29.02,SSE,157,7.0,7.0,80,0.00,,---,0.01,0.00,VWS V14.01,2013-05-28 17:48:00,
2013-05-28 13:53:00,77.0,70.4,29.03,South,180,4.0,8.0,80,0.00,,---,0.01,0.00,VWS V14.01,2013-05-28 17:53:00,
2013-05-28 13:58:00,77.0,70.7,29.03,ENE,67,3.0,6.0,81,0.00,,---,0.01,0.00,VWS V14.01,2013-05-28 17:58:00,
2013-05-28 14:03:00,77.0,70.0,29.03,SW,225,2.0,10.0,79,0.00,,---,0.01,0.00,VWS V14.01,2013-05-28 18:03:00,
2013-05-28 14:08:00,77.0,70.0,29.03,SE,135,7.0,10.0,79,0.00,,---,0.01,0.00,VWS V14.01,2013-05-28 18:08:00,
2013-05-28 14:13:00,77.0,70.7,29.04,SSE,157,3.0,5.0,81,0.00,,---,0.01,0.00,VWS V14.01,2013-05-28 18:13:00,
2013-05-28 14:18:00,77.0,69.2,29.04,South,180,4.0,10.0,77,0.00,,---,0.01,0.00,VWS V14.01,2013-05-28 18:18:00,
2013-05-28 14:23:00,77.0,68.9,29.01,SSW,202,9.0,10.0,76,0.00,,---,0.01,0.00,VWS V14.01,2013-05-28 18:23:00,
2013-05-28 14:28:00,78.0,69.8,29.01,South,180,4.0,9.0,76,0.00,,---,0.01,0.00,VWS V14.01,2013-05-28 18:28:00,
2013-05-28 14:33:00,78.0,70.2,29.02,SSE,157,3.0,6.0,77,0.00,,---,0.01,0.00,VWS V14.01,2013-05-28 18:33:00,
2013-05-28 14:38:00,77.0,70.0,29.02,South,180,5.0,8.0,79,0.00,,---,0.01,0.00,VWS V14.01,2013-05-28 18:38:00,
2013-05-28 14:43:00,78.0,71.0,29.03,West,270,0.0,10.0,79,0.00,,---,0.01,0.00,VWS V14.01,2013-05-28 18:43:00,
2013-05-28 14:48:00,78.0,70.2,29.03,SSW,202,4.0,7.0,77,0.00,,---,0.01,0.00,VWS V14.01,2013-05-28 18:48:00,
2013-05-28 14:53:00,78.0,70.2,29.03,WSW,247,9.0,11.0,77,0.00,,---,0.01,0.00,VWS V14.01,2013-05-28 18:53:00,
2013-05-28 14:58:00,77.0,70.0,29.03,South,180,3.0,5.0,79,0.00,,---,0.01,0.00,VWS V14.01,2013-05-28 18:58:00,
2013-05-28 15:03:00,77.0,70.0,29.05,SE,135,2.0,6.0,79,0.00,,---,0.01,0.00,VWS V14.01,2013-05-28 19:03:00,
2013-05-28 15:08:00,77.0,70.7,29.05,NW,315,3.0,4.0,81,0.00,,---,0.01,0.00,VWS V14.01,2013-05-28 19:08:00,
2013-05-28 15:13:00,77.0,70.4,29.05,South,180,2.0,7.0,80,0.00,,---,0.01,0.00,VWS V14.01,2013-05-28 19:13:00,
2013-05-28 15:18:00,77.0,71.1,29.05,South,180,7.0,7.0,82,0.00,,---,0.01,0.00,VWS V14.01,2013-05-28 19:18:00,
2013-05-28 15:23:00,77.0,70.0,29.04,South,180,6.0,12.0,79,0.00,,---,0.01,0.00,VWS V14.01,2013-05-28 19:23:00,
2013-05-28 15:28:00,78.0,71.7,29.04,South,180,3.0,3.0,81,0.00,,---,0.01,0.00,VWS V14.01,2013-05-28 19:28:00,
2013-05-28 15:33:00,78.0,71.7,29.01,SSE,157,1.0,7.0,81,0.00,,---,0.01,0.00,VWS V14.01,2013-05-28 19:33:00,
2013-05-28 15:38:00,78.0,71.3,29.01,South,180,3.0,7.0,80,0.00,,---,0.01,0.00,VWS V14.01,2013-05-28 19:38:00,
2013-05-28 15:43:00,78.0,71.3,29.00,SSE,157,3.0,5.0,80,0.00,,---,0.01,0.00,VWS V14.01,2013-05-28 19:43:00,
2013-05-28 15:48:00,79.0,71.9,29.00,South,180,0.0,6.0,79,0.00,,---,0.01,0.00,VWS V14.01,2013-05-28 19:48:00,
2013-05-28 15:53:00,79.0,71.6,29.03,South,180,5.0,6.0,78,0.00,,---,0.01,0.00,VWS V14.01,2013-05-28 19:53:00,
2013-05-28 15:58:00,79.0,70.0,29.03,SSE,157,7.0,9.0,74,0.00,,---,0.01,0.00,VWS V14.01,2013-05-28 19:58:00,
2013-05-28 16:03:00,79.0,71.9,29.03,West,270,4.0,6.0,79,0.00,,---,0.01,0.00,VWS V14.01,2013-05-28 20:03:00,
2013-05-28 16:08:00,79.0,71.6,29.03,SW,225,4.0,8.0,78,0.00,,---,0.01,0.00,VWS V14.01,2013-05-28 20:08:00,
2013-05-28 16:13:00,79.0,71.9,29.03,SSE,157,5.0,5.0,79,0.00,,---,0.01,0.00,VWS V14.01,2013-05-28 20:13:00,
2013-05-28 16:18:00,79.0,70.8,29.03,SSE,157,4.0,4.0,76,0.00,,---,0.01,0.00,VWS V14.01,2013-05-28 20:18:00,
2013-05-28 16:23:00,79.0,71.2,29.04,SSE,157,5.0,5.0,77,0.00,,---,0.01,0.00,VWS V14.01,2013-05-28 20:23:00,
2013-05-28 16:28:00,79.0,70.8,29.04,South,180,4.0,4.0,76,0.00,,---,0.01,0.00,VWS V14.01,2013-05-28 20:28:00,
2013-05-28 16:33:00,79.0,71.6,29.01,South,180,2.0,4.0,78,0.00,,---,0.01,0.00,VWS V14.01,2013-05-28 20:33:00,
2013-05-28 16:38:00,80.0,71.4,29.01,SE,135,0.0,5.0,75,0.00,,---,0.01,0.00,VWS V14.01,2013-05-28 20:38:00,
2013-05-28 16:43:00,80.0,69.8,29.02,NNW,337,0.0,8.0,71,0.00,,---,0.01,0.00,VWS V14.01,2013-05-28 20:43:00,
2013-05-28 16:48:00,80.0,70.2,29.02,South,180,0.0,4.0,72,0.00,,---,0.01,0.00,VWS V14.01,2013-05-28 20:48:00,
2013-05-28 16:53:00,80.0,70.2,29.02,SSW,202,6.0,10.0,72,0.00,,---,0.01,0.00,VWS V14.01,2013-05-28 20:53:00,
2013-05-28 16:58:00,79.0,69.6,29.02,South,180,4.0,10.0,73,0.00,,---,0.01,0.00,VWS V14.01,2013-05-28 20:58:00,
2013-05-28 17:03:00,79.0,69.2,29.03,SW,225,0.0,6.0,72,0.00,,---,0.01,0.00,VWS V14.01,2013-05-28 21:03:00,
2013-05-28 17:08:00,80.0,70.2,29.03,SSE,157,5.0,7.0,72,0.00,,---,0.01,0.00,VWS V14.01,2013-05-28 21:08:00,
2013-05-28 17:13:00,80.0,69.8,29.02,South,180,7.0,8.0,71,0.00,,---,0.01,0.00,VWS V14.01,2013-05-28 21:13:00,
2013-05-28 17:18:00,80.0,71.0,29.02,South,180,2.0,6.0,74,0.00,,---,0.01,0.00,VWS V14.01,2013-05-28 21:18:00,
2013-05-28 17:23:00,80.0,70.2,29.03,SE,135,3.0,7.0,72,0.00,,---,0.01,0.00,VWS V14.01,2013-05-28 21:23:00,
2013-05-28 17:28:00,80.0,69.3,29.03,WSW,247,6.0,6.0,70,0.00,,---,0.01,0.00,VWS V14.01,2013-05-28 21:28:00,
2013-05-28 17:33:00,80.0,69.8,29.04,SW,225,9.0,9.0,71,0.00,,---,0.01,0.00,VWS V14.01,2013-05-28 21:33:00,
2013-05-28 17:38:00,79.0,69.2,29.04,South,180,6.0,8.0,72,0.00,,---,0.01,0.00,VWS V14.01,2013-05-28 21:38:00,
2013-05-28 17:43:00,79.0,69.2,29.05,South,180,5.0,7.0,72,0.00,,---,0.01,0.00,VWS V14.01,2013-05-28 21:43:00,
2013-05-28 17:48:00,79.0,69.2,29.05,South,180,4.0,4.0,72,0.00,,---,0.01,0.00,VWS V14.01,2013-05-28 21:48:00,
2013-05-28 17:53:00,79.0,69.2,29.06,SSE,157,6.0,10.0,72,0.00,,---,0.01,0.00,VWS V14.01,2013-05-28 21:53:00,
2013-05-28 17:58:00,79.0,69.6,29.06,South,180,3.0,5.0,73,0.00,,---,0.01,0.00,VWS V14.01,2013-05-28 21:58:00,
2013-05-28 18:03:00,79.0,70.4,29.06,SSE,157,3.0,4.0,75,0.00,,---,0.01,0.00,VWS V14.01,2013-05-28 22:03:00,
2013-05-28 18:08:00,78.0,69.1,29.06,SSW,202,4.0,7.0,74,0.00,,---,0.01,0.00,VWS V14.01,2013-05-28 22:08:00,
2013-05-28 18:13:00,78.0,69.4,29.07,SE,135,0.0,6.0,75,0.00,,---,0.01,0.00,VWS V14.01,2013-05-28 22:13:00,
2013-05-28 18:18:00,78.0,70.2,29.07,SE,135,4.0,5.0,77,0.00,,---,0.01,0.00,VWS V14.01,2013-05-28 22:18:00,
2013-05-28 18:23:00,78.0,69.8,29.07,SE,135,3.0,8.0,76,0.00,,---,0.01,0.00,VWS V14.01,2013-05-28 22:23:00,
2013-05-28 18:28:00,78.0,69.8,29.07,South,180,3.0,4.0,76,0.00,,---,0.01,0.00,VWS V14.01,2013-05-28 22:28:00,
2013-05-28 18:33:00,78.0,69.8,29.07,South,180,3.0,4.0,76,0.00,,---,0.01,0.00,VWS V14.01,2013-05-28 22:33:00,
2013-05-28 18:38:00,78.0,70.6,29.07,South,180,0.0,4.0,78,0.00,,---,0.01,0.00,VWS V14.01,2013-05-28 22:38:00,
2013-05-28 18:43:00,78.0,70.2,29.07,SSW,202,5.0,7.0,77,0.00,,---,0.01,0.00,VWS V14.01,2013-05-28 22:43:00,
2013-05-28 18:48:00,78.0,69.8,29.07,SSW,202,2.0,4.0,76,0.00,,---,0.01,0.00,VWS V14.01,2013-05-28 22:48:00,
2013-05-28 18:53:00,79.0,70.0,29.06,South,180,3.0,3.0,74,0.00,,---,0.01,0.00,VWS V14.01,2013-05-28 22:53:00,
2013-05-28 18:58:00,79.0,70.4,29.06,South,180,5.0,6.0,75,0.00,,---,0.01,0.00,VWS V14.01,2013-05-28 22:58:00,
2013-05-28 19:03:00,79.0,70.4,29.06,South,180,3.0,4.0,75,0.00,,---,0.01,0.00,VWS V14.01,2013-05-28 23:03:00,
2013-05-28 19:08:00,78.0,69.4,29.06,South,180,0.0,9.0,75,0.00,,---,0.01,0.00,VWS V14.01,2013-05-28 23:08:00,
2013-05-28 19:13:00,78.0,69.4,29.06,SSE,157,3.0,3.0,75,0.00,,---,0.01,0.00,VWS V14.01,2013-05-28 23:13:00,
2013-05-28 19:18:00,78.0,69.1,29.06,South,180,4.0,9.0,74,0.00,,---,0.01,0.00,VWS V14.01,2013-05-28 23:18:00,
2013-05-28 19:23:00,78.0,69.1,29.06,SSW,202,3.0,5.0,74,0.00,,---,0.01,0.00,VWS V14.01,2013-05-28 23:23:00,
2013-05-28 19:28:00,78.0,69.1,29.06,West,270,3.0,9.0,74,0.00,,---,0.01,0.00,VWS V14.01,2013-05-28 23:28:00,
2013-05-28 19:33:00,78.0,69.4,29.07,SSW,202,3.0,7.0,75,0.00,,---,0.01,0.00,VWS V14.01,2013-05-28 23:33:00,
2013-05-28 19:38:00,78.0,69.1,29.07,SSE,157,3.0,6.0,74,0.00,,---,0.01,0.00,VWS V14.01,2013-05-28 23:38:00,
2013-05-28 19:43:00,78.0,69.1,29.08,SSW,202,9.0,11.0,74,0.00,,---,0.01,0.00,VWS V14.01,2013-05-28 23:43:00,
2013-05-28 19:48:00,78.0,69.4,29.08,SE,135,2.0,5.0,75,0.00,,---,0.01,0.00,VWS V14.01,2013-05-28 23:48:00,
2013-05-28 19:53:00,78.0,69.4,29.08,NNW,337,0.0,3.0,75,0.00,,---,0.01,0.00,VWS V14.01,2013-05-28 23:53:00,
2013-05-28 19:58:00,78.0,69.8,29.08,South,180,1.0,4.0,76,0.00,,---,0.01,0.00,VWS V14.01,2013-05-28 23:58:00,
2013-05-28 20:03:00,78.0,69.4,29.08,ESE,112,0.0,4.0,75,0.00,,---,0.01,0.00,VWS V14.01,2013-05-29 00:03:00,
2013-05-28 20:08:00,78.0,69.8,29.08,SSW,202,4.0,5.0,76,0.00,,---,0.01,0.00,VWS V14.01,2013-05-29 00:08:00,
2013-05-28 20:13:00,77.0,69.2,29.08,SSE,157,0.0,4.0,77,0.00,,---,0.01,0.00,VWS V14.01,2013-05-29 00:13:00,
2013-05-28 20:18:00,77.0,68.9,29.08,SE,135,0.0,3.0,76,0.00,,---,0.01,0.00,VWS V14.01,2013-05-29 00:18:00,
2013-05-28 20:23:00,77.0,68.9,29.08,SSW,202,5.0,5.0,76,0.00,,---,0.01,0.00,VWS V14.01,2013-05-29 00:23:00,
2013-05-28 20:28:00,77.0,68.9,29.08,SE,135,4.0,4.0,76,0.00,,---,0.01,0.00,VWS V14.01,2013-05-29 00:28:00,
2013-05-28 20:33:00,77.0,68.9,29.09,South,180,8.0,8.0,76,0.00,,---,0.01,0.00,VWS V14.01,2013-05-29 00:33:00,
2013-05-28 20:38:00,77.0,69.6,29.09,SE,135,3.0,5.0,78,0.00,,---,0.01,0.00,VWS V14.01,2013-05-29 00:38:00,
2013-05-28 20:43:00,77.0,69.2,29.08,SSE,157,3.0,7.0,77,0.00,,---,0.01,0.00,VWS V14.01,2013-05-29 00:43:00,
2013-05-28 20:48:00,77.0,69.6,29.08,SSE,157,2.0,2.0,78,0.00,,---,0.01,0.00,VWS V14.01,2013-05-29 00:48:00,
2013-05-28 20:53:00,77.0,69.6,29.08,SW,225,0.0,5.0,78,0.00,,---,0.01,0.00,VWS V14.01,2013-05-29 00:53:00,
2013-05-28 20:58:00,76.0,69.0,29.08,SSE,157,3.0,4.0,79,0.00,,---,0.01,0.00,VWS V14.01,2013-05-29 00:58:00,
2013-05-28 21:03:00,76.0,69.0,29.08,SSW,202,4.0,4.0,79,0.00,,---,0.01,0.00,VWS V14.01,2013-05-29 01:03:00,
2013-05-28 21:08:00,76.0,69.4,29.08,South,180,0.0,0.0,80,0.00,,---,0.01,0.00,VWS V14.01,2013-05-29 01:08:00,
2013-05-28 21:13:00,76.0,69.8,29.08,South,180,3.0,4.0,81,0.00,,---,0.01,0.00,VWS V14.01,2013-05-29 01:13:00,
2013-05-28 21:18:00,76.0,70.1,29.08,South,180,4.0,5.0,82,0.00,,---,0.01,0.00,VWS V14.01,2013-05-29 01:18:00,
2013-05-28 21:23:00,75.0,69.1,29.08,SW,225,0.0,3.0,82,0.00,,---,0.01,0.00,VWS V14.01,2013-05-29 01:23:00,
2013-05-28 21:28:00,75.0,69.1,29.08,SSW,202,2.0,4.0,82,0.00,,---,0.01,0.00,VWS V14.01,2013-05-29 01:28:00,
2013-05-28 21:33:00,75.0,69.5,29.09,ESE,112,0.0,0.0,83,0.00,,---,0.01,0.00,VWS V14.01,2013-05-29 01:33:00,
2013-05-28 21:38:00,75.0,69.8,29.09,SSE,157,0.0,3.0,84,0.00,,---,0.01,0.00,VWS V14.01,2013-05-29 01:38:00,
2013-05-28 21:43:00,74.0,69.2,29.09,SSE,157,2.0,4.0,85,0.00,,---,0.01,0.00,VWS V14.01,2013-05-29 01:43:00,
2013-05-28 21:48:00,74.0,69.2,29.09,SSE,157,0.0,0.0,85,0.00,,---,0.01,0.00,VWS V14.01,2013-05-29 01:48:00,
2013-05-28 21:53:00,74.0,69.6,29.09,South,180,0.0,3.0,86,0.00,,---,0.01,0.00,VWS V14.01,2013-05-29 01:53:00,
2013-05-28 21:58:00,74.0,69.6,29.09,South,180,3.0,3.0,86,0.00,,---,0.01,0.00,VWS V14.01,2013-05-29 01:58:00,
2013-05-28 22:03:00,74.0,69.6,29.09,SE,135,0.0,0.0,86,0.00,,---,0.01,0.00,VWS V14.01,2013-05-29 02:03:00,
2013-05-28 22:08:00,74.0,69.9,29.09,SSE,157,2.0,2.0,87,0.00,,---,0.01,0.00,VWS V14.01,2013-05-29 02:08:00,
2013-05-28 22:13:00,74.0,69.9,29.09,SSE,157,0.0,0.0,87,0.00,,---,0.01,0.00,VWS V14.01,2013-05-29 02:13:00,
2013-05-28 22:18:00,73.0,69.2,29.09,SSE,157,0.0,0.0,88,0.00,,---,0.01,0.00,VWS V14.01,2013-05-29 02:18:00,
2013-05-28 22:23:00,73.0,69.6,29.11,SSE,157,1.0,3.0,89,0.00,,---,0.01,0.00,VWS V14.01,2013-05-29 02:23:00,
2013-05-28 22:28:00,73.0,69.6,29.11,SSE,157,0.0,2.0,89,0.00,,---,0.01,0.00,VWS V14.01,2013-05-29 02:28:00,
2013-05-28 22:33:00,73.0,69.6,29.11,SSE,157,3.0,3.0,89,0.00,,---,0.01,0.00,VWS V14.01,2013-05-29 02:33:00,
2013-05-28 22:38:00,73.0,69.6,29.11,South,180,0.0,2.0,89,0.00,,---,0.01,0.00,VWS V14.01,2013-05-29 02:38:00,
2013-05-28 22:43:00,73.0,69.6,29.13,SSE,157,0.0,0.0,89,0.00,,---,0.01,0.00,VWS V14.01,2013-05-29 02:43:00,
2013-05-28 22:48:00,73.0,69.6,29.13,SSE,157,0.0,2.0,89,0.00,,---,0.01,0.00,VWS V14.01,2013-05-29 02:48:00,
2013-05-28 22:53:00,73.0,69.6,29.13,SSE,157,3.0,3.0,89,0.00,,---,0.01,0.00,VWS V14.01,2013-05-29 02:53:00,
2013-05-28 22:58:00,73.0,69.2,29.13,South,180,0.0,0.0,88,0.00,,---,0.01,0.00,VWS V14.01,2013-05-29 02:58:00,
2013-05-28 23:02:00,73.0,68.6,29.13,SSE,157,0.0,3.0,86,0.00,,---,0.01,0.00,VWS V14.01,2013-05-29 03:02:00,
2013-05-28 23:03:00,73.0,69.6,29.13,South,180,0.0,0.0,89,0.00,,---,0.01,0.00,VWS V14.01,2013-05-29 03:03:00,
2013-05-28 23:04:00,73.0,68.6,29.12,ESE,112,0.0,3.0,86,0.00,,---,0.01,0.00,VWS V14.01,2013-05-29 03:04:00,
2013-05-28 23:05:00,73.0,68.6,29.12,WSW,247,2.0,5.0,86,0.00,,---,0.01,0.00,VWS V14.01,2013-05-29 03:05:00,
2013-05-28 23:06:00,73.0,68.6,29.12,South,180,0.0,4.0,86,0.00,,---,0.01,0.00,VWS V14.01,2013-05-29 03:06:00,
2013-05-28 23:07:00,73.0,68.6,29.12,SSE,157,0.0,0.0,86,0.00,,---,0.01,0.00,VWS V14.01,2013-05-29 03:07:00,
2013-05-28 23:08:00,73.0,69.6,29.13,South,180,2.0,3.0,89,0.00,,---,0.01,0.00,VWS V14.01,2013-05-29 03:08:00,
2013-05-28 23:09:00,73.0,68.6,29.12,South,180,4.0,6.0,86,0.00,,---,0.01,0.00,VWS V14.01,2013-05-29 03:09:00,
2013-05-28 23:10:00,73.0,68.2,29.12,SSE,157,3.0,6.0,85,0.00,,---,0.01,0.00,VWS V14.01,2013-05-29 03:10:00,
2013-05-28 23:11:00,73.0,68.2,29.12,SSW,202,0.0,3.0,85,0.00,,---,0.01,0.00,VWS V14.01,2013-05-29 03:11:00,
2013-05-28 23:12:00,73.0,68.2,29.12,SSE,157,2.0,4.0,85,0.00,,---,0.01,0.00,VWS V14.01,2013-05-29 03:12:00,
2013-05-28 23:13:00,73.0,69.6,29.13,South,180,1.0,3.0,89,0.00,,---,0.01,0.00,VWS V14.01,2013-05-29 03:13:00,
2013-05-28 23:14:00,73.0,68.2,29.14,SSW,202,3.0,3.0,85,0.00,,---,0.01,0.00,VWS V14.01,2013-05-29 03:14:00,
2013-05-28 23:15:00,73.0,68.2,29.14,SSE,157,3.0,4.0,85,0.00,,---,0.01,0.00,VWS V14.01,2013-05-29 03:15:00,
2013-05-28 23:16:00,73.0,67.9,29.14,SSW,202,0.0,4.0,84,0.00,,---,0.01,0.00,VWS V14.01,2013-05-29 03:16:00,
2013-05-28 23:17:00,73.0,68.2,29.14,SSW,202,3.0,4.0,85,0.00,,---,0.01,0.00,VWS V14.01,2013-05-29 03:17:00,
2013-05-28 23:18:00,73.0,68.9,29.13,SSW,202,2.0,3.0,87,0.00,,---,0.01,0.00,VWS V14.01,2013-05-29 03:18:00,
2013-05-28 23:19:00,73.0,67.9,29.14,SSE,157,3.0,5.0,84,0.00,,---,0.01,0.00,VWS V14.01,2013-05-29 03:19:00,
2013-05-28 23:23:00,73.0,68.9,29.13,SSE,157,3.0,6.0,87,0.00,,---,0.01,0.00,VWS V14.01,2013-05-29 03:23:00,
2013-05-28 23:28:00,73.0,68.9,29.13,SSW,202,1.0,4.0,87,0.00,,---,0.01,0.00,VWS V14.01,2013-05-29 03:28:00,
2013-05-28 23:33:00,74.0,69.6,29.13,SW,225,0.0,4.0,86,0.00,,---,0.01,0.00,VWS V14.01,2013-05-29 03:33:00,
2013-05-28 23:38:00,73.0,68.6,29.13,South,180,2.0,3.0,86,0.00,,---,0.01,0.00,VWS V14.01,2013-05-29 03:38:00,
2013-05-28 23:43:00,74.0,69.6,29.13,SSE,157,0.0,6.0,86,0.00,,---,0.01,0.00,VWS V14.01,2013-05-29 03:43:00,
2013-05-28 23:48:00,73.0,68.6,29.13,WSW,247,3.0,3.0,86,0.00,,---,0.01,0.00,VWS V14.01,2013-05-29 03:48:00,
2013-05-28 23:53:00,73.0,68.6,29.13,South,180,3.0,3.0,86,0.00,,---,0.01,0.00,VWS V14.01,2013-05-29 03:53:00,
2013-05-28 23:58:00,73.0,68.6,29.13,WSW,247,0.0,0.0,86,0.00,,---,0.01,0.00,VWS V14.01,2013-05-29 03:58:00,